Time;durP1;ratioP1;P1;durP2;ratioP2;P2;SDS_P1;SDS_P2;PMS_P1;PMS_P2;Temp;Humidity;BMP_temperature;BMP_pressure;BME280_temperature;BME280_humidity;BME280_pressure;Samples;Min_cycle;Max_cycle;Signal;HPM_P1;HPM_P2
2021/07/03 00:01:05;;;;;;;2.33;0.68;;;;;;;;;;3576410;40;20376;-69
2021/07/03 00:03:31;;;;;;;2.97;0.80;;;;;;;;;;3576052;40;20833;-69
2021/07/03 00:05:57;;;;;;;2.03;0.82;;;;;;;;;;3576302;40;20389;-69
2021/07/03 00:08:27;;;;;;;2.08;0.60;;;;;;;;;;3585384;40;20397;-68
2021/07/03 00:10:53;;;;;;;1.80;0.70;;;;;;;;;;3575229;40;20434;-69
2021/07/03 00:13:21;;;;;;;1.58;0.70;;;;;;;;;;3576486;40;20434;-69
2021/07/03 00:15:47;;;;;;;2.13;0.60;;;;;;;;;;3586025;40;20467;-69
2021/07/03 00:18:13;;;;;;;1.15;0.80;;;;;;;;;;3586201;40;20366;-68
2021/07/03 00:20:40;;;;;;;1.20;0.68;;;;;;;;;;3586106;40;20363;-69
2021/07/03 00:23:07;;;;;;;1.40;0.50;;;;;;;;;;3586390;40;20371;-68
2021/07/03 00:25:33;;;;;;;1.40;0.50;;;;;;;;;;3585810;40;20724;-67
2021/07/03 00:28:00;;;;;;;1.00;0.53;;;;;;;;;;3586058;40;20371;-67
2021/07/03 00:30:27;;;;;;;1.73;0.60;;;;;;;;;;3585620;40;20390;-67
2021/07/03 00:32:54;;;;;;;2.10;0.60;;;;;;;;;;3588424;40;20390;-68
2021/07/03 00:35:20;;;;;;;2.20;0.70;;;;;;;;;;3585116;39;20497;-67
2021/07/03 00:37:46;;;;;;;2.33;0.70;;;;;;;;;;3587482;40;20430;-67
2021/07/03 00:40:13;;;;;;;2.17;0.65;;;;;;;;;;3587340;40;20408;-68
2021/07/03 00:42:39;;;;;;;2.70;0.60;;;;;;;;;;3587354;40;20482;-67
2021/07/03 00:45:06;;;;;;;1.77;0.77;;;;;;;;;;3578247;40;20409;-68
2021/07/03 00:47:34;;;;;;;1.77;0.50;;;;;;;;;;3587392;40;20739;-69
2021/07/03 00:50:00;;;;;;;2.50;0.70;;;;;;;;;;3587310;40;20410;-69
2021/07/03 00:52:26;;;;;;;1.15;0.50;;;;;;;;;;3587515;40;20519;-68
2021/07/03 00:54:53;;;;;;;2.47;0.70;;;;;;;;;;3593865;40;20468;-69
2021/07/03 00:57:19;;;;;;;2.10;0.60;;;;;;;;;;3586863;40;20387;-69
2021/07/03 00:59:46;;;;;;;1.92;0.60;;;22.70;91.70;;;;;;3587341;40;20755;-69
2021/07/03 01:02:14;;;;;;;1.50;0.43;;;22.40;83.30;;;;;;3587844;40;20378;-69
2021/07/03 01:04:42;;;;;;;2.20;0.70;;;22.50;84.20;;;;;;3618753;22;20438;-76
2021/07/03 01:07:09;;;;;;;1.45;0.60;;;22.50;83.40;;;;;;3588755;40;20382;-76
2021/07/03 01:09:36;;;;;;;1.77;0.60;;;22.40;83.30;;;;;;3593171;40;20386;-76
2021/07/03 01:12:02;;;;;;;0.70;0.45;;;22.40;83.50;;;;;;3588987;40;20406;-84
2021/07/03 01:14:28;;;;;;;1.50;0.55;;;22.40;83.40;;;;;;3584491;40;20399;-76
2021/07/03 01:16:55;;;;;;;1.40;0.50;;;;;;;;;;3580553;40;20400;-77
2021/07/03 01:19:21;;;;;;;2.33;0.70;;;;;;;;;;3585239;40;20420;-75
2021/07/03 01:21:49;;;;;;;1.17;0.40;;;;;;;;;;3574867;40;20408;-76
2021/07/03 01:24:15;;;;;;;1.92;0.63;;;;;;;;;;3587177;40;20404;-78
2021/07/03 01:26:42;;;;;;;1.90;0.60;;;;;;;;;;3595085;40;20741;-77
2021/07/03 01:29:08;;;;;;;2.05;0.60;;;;;;;;;;3591192;40;20366;-78
2021/07/03 01:31:34;;;;;;;1.03;0.60;;;;;;;;;;3576168;40;20401;-76
2021/07/03 01:34:01;;;;;;;1.75;0.90;;;;;;;;;;3585579;40;20402;-77
2021/07/03 01:36:27;;;;;;;1.35;0.63;;;;;;;;;;3588056;40;20384;-77
2021/07/03 01:38:54;;;;;;;0.85;0.50;;;;;;;;;;3579549;40;20448;-78
2021/07/03 01:41:21;;;;;;;1.77;0.50;;;;;;;;;;3588974;40;20370;-77
2021/07/03 01:43:47;;;;;;;1.02;0.40;;;;;;;;;;3588797;40;20366;-78
2021/07/03 01:46:13;;;;;;;2.05;0.50;;;;;;;;;;3588156;40;20742;-78
2021/07/03 01:48:40;;;;;;;1.60;0.50;;;;;;;;;;3582377;40;20406;-74
2021/07/03 01:51:06;;;;;;;1.80;0.55;;;;;;;;;;3588494;40;20386;-75
2021/07/03 01:53:33;;;;;;;1.13;0.40;;;;;;;;;;3585666;40;20421;-77
2021/07/03 01:56:00;;;;;;;1.03;0.53;;;;;;;;;;3588401;40;20365;-77
2021/07/03 01:58:27;;;;;;;1.95;0.50;;;;;;;;;;3580180;40;20667;-77
2021/07/03 02:00:54;;;;;;;1.42;0.47;;;;;;;;;;3584584;40;20370;-77
2021/07/03 02:03:20;;;;;;;1.10;0.40;;;;;;;;;;3587802;40;20398;-77
2021/07/03 02:05:46;;;;;;;1.55;0.60;;;;;;;;;;3587733;40;20491;-78
2021/07/03 02:08:13;;;;;;;1.60;0.60;;;;;;;;;;3588125;40;20370;-77
2021/07/03 02:10:39;;;;;;;0.60;0.40;;;;;;;;;;3578379;40;20406;-77
2021/07/03 02:13:07;;;;;;;2.20;0.40;;;;;;;;;;3578873;40;20430;-77
2021/07/03 02:15:33;;;;;;;1.17;0.47;;;;;;;;;;3587804;40;20375;-76
2021/07/03 02:17:59;;;;;;;1.15;0.50;;;;;;;;;;3588315;40;20367;-81
2021/07/03 02:20:26;;;;;;;2.25;0.50;;;;;;;;;;3582378;40;20398;-77
2021/07/03 02:22:52;;;;;;;1.02;0.50;;;;;;;;;;3588332;40;20647;-77
2021/07/03 02:25:18;;;;;;;1.25;0.50;;;;;;;;;;3588332;40;20370;-77
2021/07/03 02:27:44;;;;;;;0.80;0.43;;;;;;;;;;3588530;40;20444;-76
2021/07/03 02:30:13;;;;;;;1.10;0.50;;;;;;;;;;3588263;40;20434;-73
2021/07/03 02:32:39;;;;;;;1.33;0.50;;;;;;;;;;3578873;40;20421;-76
2021/07/03 02:35:06;;;;;;;1.05;0.40;;;;;;;;;;3587600;40;20767;-75
2021/07/03 02:37:32;;;;;;;1.58;0.50;;;;;;;;;;3587958;40;20370;-75
2021/07/03 02:39:59;;;;;;;1.60;0.70;;;;;;;;;;3574401;40;20394;-72
2021/07/03 02:42:25;;;;;;;1.27;0.60;;;;;;;;;;3580892;40;20492;-72
2021/07/03 02:44:51;;;;;;;0.83;0.40;;;;;;;;;;3577122;40;20405;-71
2021/07/03 02:47:18;;;;;;;0.75;0.50;;;;;;;;;;3586696;40;20422;-72
2021/07/03 02:49:45;;;;;;;2.65;0.40;;;;;;;;;;3586546;40;20402;-72
2021/07/03 02:52:11;;;;;;;0.80;0.40;;;;;;;;;;3583493;40;20381;-72
2021/07/03 02:54:37;;;;;;;0.60;0.40;;;;;;;;;;3586617;40;20386;-72
2021/07/03 02:57:03;;;;;;;1.05;0.50;;;;;;;;;;3575135;40;20394;-68
2021/07/03 02:59:30;;;;;;;2.28;0.45;;;;;;;;;;3585757;40;20499;-67
2021/07/03 03:01:56;;;;;;;1.33;0.45;;;;;;;;;;3586639;40;20384;-67
2021/07/03 03:04:23;;;;;;;0.70;0.40;;;;;;;;;;3573047;40;20497;-66
2021/07/03 03:06:49;;;;;;;1.27;0.52;;;;;;;;;;3583885;40;20394;-66
2021/07/03 03:09:18;;;;;;;2.35;0.55;;;;;;;;;;3584396;40;20413;-69
2021/07/03 03:11:44;;;;;;;0.70;0.50;;;;;;;;;;3586671;40;20422;-68
2021/07/03 03:14:10;;;;;;;0.55;0.40;;;;;;;;;;3586793;40;20375;-68
2021/07/03 03:16:36;;;;;;;0.63;0.32;;;;;;;;;;3585450;40;20762;-68
2021/07/03 03:19:03;;;;;;;1.42;0.40;;;;;;;;;;3587003;40;20648;-66
2021/07/03 03:21:30;;;;;;;1.20;0.40;;;;;;;;;;3587139;40;20359;-68
2021/07/03 03:23:57;;;;;;;1.08;0.40;;;;;;;;;;3586638;40;20382;-68
2021/07/03 03:26:23;;;;;;;0.77;0.50;;;;;;;;;;3572190;40;20762;-68
2021/07/03 03:28:49;;;;;;;0.90;0.40;;;;;;;;;;3589874;40;20478;-68
2021/07/03 03:31:15;;;;;;;0.82;0.40;;;;;;;;;;3587989;40;20379;-68
2021/07/03 03:33:41;;;;;;;0.50;0.40;;;;;;;;;;3588907;40;20355;-68
2021/07/03 03:36:07;;;;;;;0.80;0.40;;;;;;;;;;3580956;40;20392;-68
2021/07/03 03:38:35;;;;;;;1.65;0.50;;;;;;;;;;3583127;40;20873;-66
2021/07/03 03:41:01;;;;;;;2.08;0.45;;;;;;;;;;3577412;40;20413;-66
2021/07/03 03:43:27;;;;;;;1.48;0.40;;;;;;;;;;3570978;40;20727;-66
2021/07/03 03:45:54;;;;;;;2.23;0.67;;;;;;;;;;3588123;40;20351;-66
2021/07/03 03:48:20;;;;;;;0.75;0.40;;;;;;;;;;3579234;40;20402;-67
2021/07/03 03:50:46;;;;;;;0.93;0.50;;;;;;;;;;3588615;40;20453;-66
2021/07/03 03:53:12;;;;;;;0.90;0.40;;;;;;;;;;3583253;40;20458;-66
2021/07/03 03:55:40;;;;;;;1.90;0.50;;;;;;;;;;3590145;40;20363;-67
2021/07/03 03:58:06;;;;;;;1.35;0.40;;;;;;;;;;3574146;40;20410;-66
2021/07/03 04:00:32;;;;;;;2.10;0.50;;;;;;;;;;3578987;40;20437;-66
2021/07/03 04:02:58;;;;;;;1.00;0.50;;;;;;;;;;3586245;40;20842;-66
2021/07/03 04:05:24;;;;;;;1.00;0.50;;;;;;;;;;3589375;40;20414;-66
2021/07/03 04:07:50;;;;;;;1.05;0.40;;;;;;;;;;3586880;40;20362;-66
2021/07/03 04:10:17;;;;;;;1.58;0.40;;;;;;;;;;3589940;39;20420;-66
2021/07/03 04:12:44;;;;;;;1.27;0.50;;;;;;;;;;3578499;40;20790;-66
2021/07/03 04:15:11;;;;;;;0.88;0.45;;;;;;;;;;3587882;40;20393;-66
2021/07/03 04:17:38;;;;;;;1.40;0.50;;;;;;;;;;3574102;40;20483;-68
2021/07/03 04:20:05;;;;;;;0.88;0.50;;;;;;;;;;3584994;40;20406;-68
2021/07/03 04:22:32;;;;;;;2.08;0.52;;;;;;;;;;3573448;40;20397;-69
2021/07/03 04:24:58;;;;;;;1.00;0.60;;;;;;;;;;3587942;40;20468;-69
2021/07/03 04:27:24;;;;;;;0.70;0.40;;;;;;;;;;3587655;40;20799;-68
2021/07/03 04:29:52;;;;;;;1.42;0.52;;;;;;;;;;3584544;40;20370;-65
2021/07/03 04:32:18;;;;;;;2.13;0.60;;;;;;;;;;3587699;40;20377;-68
2021/07/03 04:34:44;;;;;;;1.20;0.50;;;;;;;;;;3569908;40;20659;-68
2021/07/03 04:37:10;;;;;;;9.00;0.60;;;;;;;;;;3587646;40;20374;-65
2021/07/03 04:39:38;;;;;;;0.88;0.50;;;;;;;;;;3587542;40;20394;-65
2021/07/03 04:42:04;;;;;;;1.70;0.50;;;;;;;;;;3579670;40;20759;-65
2021/07/03 04:44:30;;;;;;;2.22;0.80;;;;;;;;;;3588789;40;20378;-66
2021/07/03 04:46:58;;;;;;;1.90;0.70;;;;;;;;;;3587511;40;20362;-68
2021/07/03 04:49:24;;;;;;;2.10;0.70;;;;;;;;;;3587526;40;20764;-68
2021/07/03 04:51:50;;;;;;;3.20;0.70;;;;;;;;;;3587424;40;20385;-68
2021/07/03 04:54:16;;;;;;;0.80;0.52;;;;;;;;;;3587542;40;20370;-68
2021/07/03 04:56:45;;;;;;;1.45;0.70;;;;;;;;;;3581666;40;20432;-68
2021/07/03 04:59:11;;;;;;;1.38;0.50;;;;;;;;;;3577976;40;20456;-68
2021/07/03 05:01:37;;;;;;;1.70;0.80;;;;;;;;;;3587507;40;20620;-68
2021/07/03 05:04:05;;;;;;;4.80;0.60;;;;;;;;;;3588554;40;20654;-68
2021/07/03 05:06:31;;;;;;;1.10;0.60;;;;;;;;;;3588890;40;20369;-68
2021/07/03 05:08:57;;;;;;;1.65;0.47;;;;;;;;;;3589393;39;20481;-68
2021/07/03 05:11:23;;;;;;;1.23;0.40;;;;;;;;;;3586684;40;20861;-68
2021/07/03 05:13:49;;;;;;;1.40;0.50;;;;;;;;;;3581530;40;20390;-68
2021/07/03 05:16:16;;;;;;;0.63;0.43;;;;;;;;;;3587758;40;20363;-68
2021/07/03 05:18:42;;;;;;;1.08;0.40;;;;;;;;;;3588203;40;20370;-68
2021/07/03 05:21:09;;;;;;;1.80;0.80;;;;;;;;;;3590070;40;20834;-68
2021/07/03 05:23:36;;;;;;;1.00;0.40;;;;;;;;;;3586817;40;20459;-68
2021/07/03 05:26:02;;;;;;;0.60;0.50;;;;;;;;;;3590809;40;20392;-68
2021/07/03 05:28:28;;;;;;;1.10;0.60;;;;;;;;;;3569149;40;20412;-68
2021/07/03 05:30:54;;;;;;;1.25;0.40;;;;;;;;;;3572648;40;20414;-67
2021/07/03 05:33:20;;;;;;;0.90;0.47;;;;;;;;;;3586371;40;20370;-68
2021/07/03 05:35:47;;;;;;;1.98;0.80;;;;;;;;;;3589331;40;20352;-68
2021/07/03 05:38:14;;;;;;;1.00;0.50;;;;;;;;;;3577501;40;20406;-68
2021/07/03 05:40:40;;;;;;;0.70;0.40;;;;;;;;;;3587317;40;20766;-68
2021/07/03 05:43:07;;;;;;;1.50;0.60;;;;;;;;;;3587079;40;20377;-68
2021/07/03 05:45:33;;;;;;;1.48;0.50;;;;;;;;;;3587233;40;20407;-68
2021/07/03 05:47:59;;;;;;;1.70;0.70;;;;;;;;;;3574398;40;20410;-68
2021/07/03 05:50:26;;;;;;;1.75;0.68;;;;;;;;;;3577532;40;20489;-68
2021/07/03 05:52:53;;;;;;;1.63;0.70;;;;;;;;;;3576120;40;20396;-68
2021/07/03 05:55:21;;;;;;;2.20;0.63;;;;;;;;;;3585786;40;20373;-69
2021/07/03 05:57:48;;;;;;;1.80;0.80;;;;;;;;;;3581436;40;20401;-68
2021/07/03 06:00:15;;;;;;;3.40;0.70;;;;;;;;;;3587296;40;20385;-69
2021/07/03 06:02:41;;;;;;;2.33;0.65;;;;;;;;;;3576744;40;20411;-68
2021/07/03 06:05:08;;;;;;;1.50;0.70;;;;;;;;;;3587679;40;20413;-68
2021/07/03 06:07:34;;;;;;;1.48;0.52;;;;;;;;;;3594149;40;20746;-69
2021/07/03 06:10:01;;;;;;;3.50;0.80;;;;;;;;;;3583432;40;20378;-69
2021/07/03 06:12:28;;;;;;;2.30;0.57;;;;;;;;;;3577353;40;20383;-70
2021/07/03 06:14:55;;;;;;;1.65;0.60;;;;;;;;;;3590790;40;20653;-69
2021/07/03 06:17:21;;;;;;;2.17;0.73;;;;;;;;;;3587118;40;20481;-69
2021/07/03 06:19:47;;;;;;;1.70;0.60;;;;;;;;;;3587828;40;20351;-69
2021/07/03 06:22:14;;;;;;;1.65;0.70;;;;;;;;;;3587030;40;20412;-69
2021/07/03 06:24:40;;;;;;;1.05;0.50;;;;;;;;;;3587072;40;20640;-68
2021/07/03 06:27:06;;;;;;;1.52;0.60;;;;;;;;;;3582429;40;20400;-68
2021/07/03 06:29:37;;;;;;;3.67;0.75;;;;;;;;;;3577565;40;20394;-69
2021/07/03 06:32:04;;;;;;;1.45;0.60;;;;;;;;;;3587755;40;20459;-69
2021/07/03 06:34:30;;;;;;;1.13;0.50;;;;;;;;;;3596620;39;20737;-66
2021/07/03 06:36:56;;;;;;;1.50;0.70;;;;;;;;;;3586957;40;20775;-69
2021/07/03 06:39:22;;;;;;;1.98;0.70;;;;;;;;;;3576537;40;20404;-69
2021/07/03 06:41:49;;;;;;;1.83;0.50;;;;;;;;;;3586843;40;20759;-69
2021/07/03 06:44:15;;;;;;;2.50;0.70;;;;;;;;;;3586891;40;20613;-66
2021/07/03 06:46:42;;;;;;;1.15;0.50;;;;;;;;;;3587061;40;20778;-67
2021/07/03 06:49:09;;;;;;;1.60;0.70;;;;;;;;;;3586999;40;20372;-69
2021/07/03 06:51:35;;;;;;;0.73;0.60;;;;;;;;;;3575392;40;20421;-67
2021/07/03 06:54:03;;;;;;;2.25;0.80;;;;;;;;;;3587008;40;20456;-67
2021/07/03 06:56:29;;;;;;;1.50;0.70;;;;;;;;;;3586849;40;20751;-67
2021/07/03 06:58:56;;;;;;;2.78;0.75;;;;;;;;;;3586845;40;20390;-69
2021/07/03 07:01:22;;;;;;;2.30;0.70;;;;;;;;;;3586907;40;20422;-69
2021/07/03 07:03:49;;;;;;;1.67;0.60;;;;;;;;;;3586862;40;20469;-67
2021/07/03 07:06:16;;;;;;;1.55;0.70;;;;;;;;;;3575928;40;20477;-67
2021/07/03 07:08:42;;;;;;;1.08;0.70;;;;;;;;;;3586863;40;20347;-69
2021/07/03 07:11:08;;;;;;;1.33;0.70;;;;;;;;;;3577281;40;20398;-70
2021/07/03 07:13:34;;;;;;;1.60;0.68;;;;;;;;;;3586968;40;20358;-70
2021/07/03 07:16:00;;;;;;;2.75;0.70;;;;;;;;;;3587000;40;20370;-69
2021/07/03 07:18:27;;;;;;;3.37;1.10;;;;;;;;;;3586575;40;20355;-66
2021/07/03 07:20:54;;;;;;;3.27;0.90;;;;;;;;;;3586419;40;20382;-68
2021/07/03 07:23:20;;;;;;;2.65;0.90;;;;;;;;;;3586821;40;20369;-66
2021/07/03 07:25:50;;;;;;;1.55;0.93;;;;;;;;;;3577486;40;20468;-67
2021/07/03 07:28:16;;;;;;;1.52;0.80;;;;;;;;;;3577019;40;20394;-68
2021/07/03 07:30:42;;;;;;;3.63;1.00;;;;;;;;;;3592395;40;20381;-66
2021/07/03 07:33:09;;;;;;;2.13;0.97;;;;;;;;;;3587898;40;20378;-66
2021/07/03 07:35:35;;;;;;;1.70;0.93;;;;;;;;;;3586419;40;20363;-66
2021/07/03 07:38:02;;;;;;;3.35;0.95;;;;;;;;;;3576800;40;20712;-68
2021/07/03 07:40:28;;;;;;;2.63;1.27;;;;;;;;;;3586402;40;20373;-69
2021/07/03 07:42:55;;;;;;;1.47;1.07;;;;;;;;;;3586697;40;20358;-69
2021/07/03 07:45:21;;;;;;;2.70;1.20;;;;;;;;;;3583728;40;20394;-66
2021/07/03 07:47:47;;;;;;;2.25;1.23;;;;;;;;;;3586296;40;20743;-66
2021/07/03 07:50:14;;;;;;;2.45;1.20;;;;;;;;;;3580364;40;20648;-66
2021/07/03 07:52:40;;;;;;;2.33;1.10;;;;;;;;;;3589920;40;20644;-66
2021/07/03 07:55:08;;;;;;;4.35;1.42;;;;;;;;;;3586158;40;20471;-69
2021/07/03 07:57:34;;;;;;;1.50;1.00;;;;;;;;;;3578357;40;20446;-66
2021/07/03 08:00:01;;;;;;;4.03;1.10;;;;;;;;;;3586850;40;20738;-66
2021/07/03 08:02:27;;;;;;;2.40;0.95;;;;;;;;;;3588206;40;20456;-66
2021/07/03 08:04:53;;;;;;;1.40;0.90;;;;;;;;;;3586785;40;20402;-68
2021/07/03 08:07:19;;;;;;;2.42;1.00;;;;;;;;;;3586218;40;20370;-68
2021/07/03 08:09:45;;;;;;;1.70;1.08;;;;;;;;;;3589572;40;20759;-68
2021/07/03 08:12:13;;;;;;;4.32;1.17;;;22.40;82.50;;;;;;3575033;40;20408;-69
2021/07/03 08:14:39;;;;;;;2.80;1.08;;;24.60;83.30;;;;;;3586205;40;20403;-68
2021/07/03 08:17:05;;;;;;;3.05;1.13;;;24.60;85.40;;;;;;3574861;40;20404;-68
2021/07/03 08:19:31;;;;;;;3.47;1.52;;;;;;;;;;3586835;40;20862;-68
2021/07/03 08:21:58;;;;;;;2.58;1.00;;;;;;;;;;3591957;40;20453;-68
2021/07/03 08:24:24;;;;;;;3.17;1.55;;;;;;;;;;3579208;40;20394;-68
2021/07/03 08:26:50;;;;;;;3.60;1.23;;;;;;;;;;3589087;40;20456;-68
2021/07/03 08:29:18;;;;;;;2.85;1.25;;;;;;;;;;3585948;40;20761;-68
2021/07/03 08:31:44;;;;;;;5.10;1.30;;;;;;;;;;3585879;40;20383;-67
2021/07/03 08:34:10;;;;;;;2.95;1.13;;;24.60;85.00;;;;;;3587896;40;20369;-66
2021/07/03 08:36:38;;;;;;;1.93;0.97;;;25.60;90.80;;;;;;3574701;40;20479;-70
2021/07/03 08:39:04;;;;;;;1.38;0.73;;;;;;;;;;3578130;40;20404;-68
2021/07/03 08:41:33;;;;;;;4.20;1.10;;;25.50;81.70;;;;;;3588193;40;20431;-69
2021/07/03 08:43:59;;;;;;;3.00;0.80;;;;;;;;;;3587060;40;20378;-68
2021/07/03 08:46:27;;;;;;;2.60;1.10;;;;;;;;;;3592463;40;20440;-66
2021/07/03 08:48:54;;;;;;;2.70;0.90;;;;;;;;;;3589743;40;20372;-68
2021/07/03 08:51:22;;;;;;;1.50;0.90;;;;;;;;;;3578349;40;20446;-68
2021/07/03 08:53:48;;;;;;;3.22;0.95;;;25.90;81.60;;;;;;3579400;40;20684;-68
2021/07/03 08:56:14;;;;;;;2.60;1.42;;;27.10;81.90;;;;;;3588415;39;20373;-68
2021/07/03 08:58:40;;;;;;;1.92;1.00;;;27.10;82.30;;;;;;3590393;40;20424;-68
2021/07/03 09:01:06;;;;;;;3.13;0.80;;;26.90;82.00;;;;;;3591309;40;20372;-68
2021/07/03 09:03:33;;;;;;;1.73;0.70;;;27.00;82.60;;;;;;3583033;40;20471;-68
2021/07/03 09:06:00;;;;;;;4.50;1.20;;;27.10;83.00;;;;;;3586864;40;20445;-69
2021/07/03 09:08:27;;;;;;;4.57;1.10;;;27.10;83.00;;;;;;3587052;40;20358;-68
2021/07/03 09:11:01;;;;;;;3.22;0.80;;;27.10;85.00;;;;;;3587128;40;20394;-68
2021/07/03 09:13:27;;;;;;;2.78;0.90;;;27.00;84.90;;;;;;3577364;40;20373;-67
2021/07/03 09:15:53;;;;;;;2.47;0.98;;;27.20;84.40;;;;;;3586820;40;20363;-67
2021/07/03 09:18:19;;;;;;;3.15;1.20;;;27.30;84.30;;;;;;3586272;40;20378;-67
2021/07/03 09:20:51;;;;;;;3.35;1.17;;;;;;;;;;3586694;40;20398;-66
2021/07/03 09:23:18;;;;;;;2.90;1.20;;;;;;;;;;3577647;40;20407;-68
2021/07/03 09:25:45;;;;;;;1.92;0.90;;;;;;;;;;3586835;40;20363;-69
2021/07/03 09:28:13;;;;;;;2.85;1.10;;;;;;;;;;3586248;40;20422;-69
2021/07/03 09:30:41;;;;;;;4.35;1.00;;;;;;;;;;3583941;40;20378;-68
2021/07/03 09:33:07;;;;;;;1.40;0.75;;;;;;;;;;3587731;40;20381;-68
2021/07/03 09:35:33;;;;;;;3.00;1.30;;;;;;;;;;3587187;40;20441;-67
2021/07/03 09:38:01;;;;;;;2.92;0.80;;;;;;;;;;3575416;40;20494;-67
2021/07/03 09:40:28;;;;;;;2.63;1.00;;;;;;;;;;3586321;40;20386;-67
2021/07/03 09:42:55;;;;;;;3.35;1.10;;;;;;;;;;3573514;40;20410;-69
2021/07/03 09:45:23;;;;;;;2.77;1.20;;;;;;;;;;3579661;40;20402;-69
2021/07/03 09:47:50;;;;;;;3.08;1.10;;;;;;;;;;3587715;40;20386;-66
2021/07/03 09:50:22;;;;;;;3.42;1.17;;;;;;;;;;3583922;40;20406;-68
2021/07/03 09:52:48;;;;;;;2.88;0.90;;;;;;;;;;3587697;40;20367;-66
2021/07/03 09:55:15;;;;;;;2.10;1.00;;;;;;;;;;3588540;40;20773;-67
2021/07/03 09:57:42;;;;;;;2.38;1.05;;;;;;;;;;3585595;40;20374;-67
2021/07/03 10:00:10;;;;;;;2.65;1.20;;;;;;;;;;3588252;40;20714;-69
2021/07/03 10:02:36;;;;;;;3.57;1.03;;;;;;;;;;3586153;40;20445;-66
2021/07/03 10:05:03;;;;;;;3.10;0.88;;;;;;;;;;3576996;40;20426;-69
2021/07/03 10:07:35;;;;;;;4.50;1.58;;;;;;;;;;3583059;40;20636;-69
2021/07/03 10:10:03;;;;;;;1.48;1.00;;;;;;;;;;3592720;40;20365;-69
2021/07/03 10:12:33;;;;;;;2.53;1.00;;;;;;;;;;3585127;40;20422;-69
2021/07/03 10:14:59;;;;;;;2.50;1.10;;;27.40;84.80;;;;;;3585784;40;20655;-70
2021/07/03 10:17:26;;;;;;;4.50;1.10;;;27.20;85.50;;;;;;3585492;40;20373;-69
2021/07/03 10:19:53;;;;;;;2.75;0.95;;;27.10;86.50;;;;;;3583289;40;20706;-66
2021/07/03 10:22:20;;;;;;;3.60;1.17;;;;;;;;;;3570233;40;20399;-68
2021/07/03 10:24:51;;;;;;;3.23;0.90;;;;;;;;;;3576493;40;20404;-67
2021/07/03 10:27:22;;;;;;;1.95;1.00;;;;;;;;;;3585327;40;20710;-68
2021/07/03 10:29:52;;;;;;;4.80;1.10;;;;;;;;;;3586195;40;20383;-68
2021/07/03 10:32:19;;;;;;;1.45;0.98;;;;;;;;;;3586182;40;20382;-69
2021/07/03 10:34:45;;;;;;;2.70;1.00;;;;;;;;;;3586089;40;20363;-68
2021/07/03 10:37:11;;;;;;;5.10;1.40;;;27.00;87.10;;;;;;3575597;40;20395;-68
2021/07/03 10:39:37;;;;;;;4.07;1.05;;;;;;;;;;3586768;40;20404;-68
2021/07/03 10:42:04;;;;;;;2.50;1.10;;;;;;;;;;3586063;40;20381;-68
2021/07/03 10:44:40;;;;;;;2.15;1.23;;;;;;;;;;3588195;40;20424;-68
2021/07/03 10:47:08;;;;;;;2.50;1.20;;;;;;;;;;3584731;40;20395;-68
2021/07/03 10:49:36;;;;;;;4.85;1.00;;;;;;;;;;3587462;40;20454;-67
2021/07/03 10:52:10;;;;;;;4.00;1.40;;;;;;;;;;3582628;40;20480;-69
2021/07/03 10:54:36;;;;;;;2.65;1.15;;;;;;;;;;3580890;40;20464;-69
2021/07/03 10:57:04;;;;;;;3.65;1.40;;;;;;;;;;3582746;40;20390;-70
2021/07/03 10:59:33;;;;;;;2.10;1.10;;;26.60;88.30;;;;;;3584637;40;20399;-68
2021/07/03 11:02:09;;;;;;;2.10;1.17;;;26.80;88.70;;;;;;3585916;40;20382;-68
2021/07/03 11:04:47;;;;;;;3.35;1.50;;;;;;;;;;3575355;40;20414;-69
2021/07/03 11:07:14;;;;;;;2.75;1.20;;;;;;;;;;3585471;40;20743;-68
2021/07/03 11:09:41;;;;;;;3.13;1.33;;;;;;;;;;3566994;40;20396;-69
2021/07/03 11:12:12;;;;;;;3.65;1.35;;;;;;;;;;3572307;40;20675;-68
2021/07/03 11:14:40;;;;;;;3.85;1.40;;;;;;;;;;3585919;40;20380;-68
2021/07/03 11:17:07;;;;;;;3.42;1.17;;;;;;;;;;3575274;40;20645;-68
2021/07/03 11:19:33;;;;;;;3.60;1.23;;;;;;;;;;3585441;40;20398;-68
2021/07/03 11:22:07;;;;;;;3.33;1.40;;;;;;;;;;3585571;40;20811;-68
2021/07/03 11:24:43;;;;;;;3.10;1.77;;;;;;;;;;3584727;40;20576;-68
2021/07/03 11:27:09;;;;;;;5.78;1.70;;;;;;;;;;3585600;40;20358;-68
2021/07/03 11:29:35;;;;;;;2.30;1.40;;;;;;;;;;3585728;40;20392;-68
2021/07/03 11:32:06;;;;;;;2.92;1.20;;;;;;;;;;3585889;40;20383;-68
2021/07/03 11:34:33;;;;;;;2.75;1.13;;;;;;;;;;3567697;40;20634;-68
2021/07/03 11:36:59;;;;;;;2.80;1.17;;;;;;;;;;3585556;40;20390;-68
2021/07/03 11:39:26;;;;;;;3.38;1.20;;;;;;;;;;3577301;40;20405;-68
2021/07/03 11:41:59;;;;;;;3.28;1.02;;;26.80;89.50;;;;;;3585639;40;20386;-68
2021/07/03 11:44:26;;;;;;;2.58;1.20;;;27.30;88.50;;;;;;3582084;40;20375;-68
2021/07/03 11:46:52;;;;;;;6.53;1.40;;;27.30;86.80;;;;;;3587522;40;20397;-69
2021/07/03 11:49:18;;;;;;;2.03;1.20;;;27.30;86.90;;;;;;3586191;40;20366;-69
2021/07/03 11:51:45;;;;;;;3.10;1.45;;;;;;;;;;3577698;40;20382;-69
2021/07/03 11:54:11;;;;;;;3.95;1.75;;;;;;;;;;3586011;40;20376;-69
2021/07/03 11:56:38;;;;;;;3.58;1.40;;;;;;;;;;3570986;40;20386;-69
2021/07/03 11:59:04;;;;;;;2.17;1.40;;;;;;;;;;3575854;40;20401;-68
2021/07/03 12:01:31;;;;;;;3.30;1.75;;;;;;;;;;3577494;40;20381;-68
2021/07/03 12:03:59;;;;;;;3.90;1.58;;;;;;;;;;3584328;40;20394;-69
2021/07/03 12:06:25;;;;;;;1.60;1.20;;;;;;;;;;3575956;40;20404;-69
2021/07/03 12:08:53;;;;;;;4.57;2.05;;;27.40;87.60;;;;;;3584797;40;20787;-69
2021/07/03 12:11:20;;;;;;;2.67;1.25;;;28.10;85.30;;;;;;3572345;40;20449;-68
2021/07/03 12:13:48;;;;;;;3.30;1.57;;;;;;;;;;3585301;40;20382;-69
2021/07/03 12:16:15;;;;;;;3.47;1.40;;;;;;;;;;3575790;40;20386;-67
2021/07/03 12:18:43;;;;;;;2.05;1.13;;;;;;;;;;3585342;40;20394;-68
2021/07/03 12:21:11;;;;;;;3.90;1.40;;;;;;;;;;3585770;40;20375;-67
2021/07/03 12:23:38;;;;;;;3.25;1.52;;;;;;;;;;3586084;40;20418;-69
2021/07/03 12:26:06;;;;;;;2.67;1.30;;;;;;;;;;3585518;40;20382;-68
2021/07/03 12:28:32;;;;;;;3.35;1.48;;;;;;;;;;3583034;40;20376;-68
2021/07/03 12:31:05;;;;;;;2.85;1.05;;;;;;;;;;3585991;40;20378;-68
2021/07/03 12:33:31;;;;;;;3.58;1.17;;;;;;;;;;3577616;40;20398;-68
2021/07/03 12:35:57;;;;;;;2.60;0.95;;;;;;;;;;3587191;40;20375;-67
2021/07/03 12:38:25;;;;;;;5.95;1.10;;;28.10;84.60;;;;;;3590926;40;20389;-67
2021/07/03 12:40:51;;;;;;;1.75;0.80;;;29.80;81.40;;;;;;3585952;40;20767;-67
2021/07/03 12:43:18;;;;;;;6.47;1.07;;;29.80;94.30;;;;;;3587824;40;20424;-67
2021/07/03 12:45:44;;;;;;;1.50;0.70;;;29.90;83.50;;;;;;3577913;40;20398;-68
2021/07/03 12:48:13;;;;;;;4.25;1.08;;;30.00;82.20;;;;;;3587460;40;20438;-66
2021/07/03 12:50:40;;;;;;;2.40;0.80;;;30.10;80.20;;;;;;3587213;40;20441;-66
2021/07/03 12:53:07;;;;;;;2.95;1.00;;;29.80;80.60;;;;;;3577961;40;20410;-66
2021/07/03 12:55:36;;;;;;;4.22;1.00;;;29.40;82.70;;;;;;3587273;40;20448;-66
2021/07/03 12:58:02;;;;;;;3.38;1.10;;;29.40;79.30;;;;;;3574064;40;20395;-66
2021/07/03 13:00:30;;;;;;;1.50;0.80;;;29.40;80.80;;;;;;3575437;40;20479;-66
2021/07/03 13:02:56;;;;;;;2.63;0.90;;;29.50;78.20;;;;;;3581253;40;20376;-68
2021/07/03 13:05:23;;;;;;;3.65;1.20;;;29.30;80.40;;;;;;3577186;40;20422;-66
2021/07/03 13:07:49;;;;;;;4.57;1.30;;;29.10;82.10;;;;;;3577321;40;20655;-66
2021/07/03 13:10:15;;;;;;;5.95;1.33;;;29.10;79.20;;;;;;3577137;40;20749;-69
2021/07/03 13:12:41;;;;;;;2.65;1.15;;;29.20;78.70;;;;;;3576657;40;20403;-66
2021/07/03 13:15:08;;;;;;;2.10;1.00;;;29.10;79.20;;;;;;3584332;40;20426;-66
2021/07/03 13:17:35;;;;;;;4.47;1.05;;;29.00;80.40;;;;;;3559707;40;20400;-66
2021/07/03 13:20:01;;;;;;;4.57;1.08;;;29.20;79.60;;;;;;3577081;40;20423;-66
2021/07/03 13:22:27;;;;;;;6.50;1.10;;;29.30;81.40;;;;;;3570612;40;20773;-66
2021/07/03 13:24:53;;;;;;;4.35;1.15;;;29.60;79.50;;;;;;3578220;40;20388;-68
2021/07/03 13:27:18;;;;;;;0.93;0.60;;;29.90;78.60;;;;;;3566482;40;20830;-66
2021/07/03 13:29:44;;;;;;;3.47;0.80;;;30.10;78.80;;;;;;3577405;40;20384;-66
2021/07/03 13:32:10;;;;;;;2.33;0.75;;;30.10;78.90;;;;;;3576667;40;20562;-66
2021/07/03 13:34:38;;;;;;;11.43;1.30;;;30.00;79.30;;;;;;3575169;40;20642;-66
2021/07/03 13:37:04;;;;;;;2.00;0.90;;;;;;;;;;3581178;40;20372;-66
2021/07/03 13:39:30;;;;;;;3.08;1.08;;;;;;;;;;3580486;40;20356;-66
2021/07/03 13:41:56;;;;;;;2.95;1.02;;;;;;;;;;3577046;40;20385;-66
2021/07/03 13:44:23;;;;;;;1.00;0.60;;;;;;;;;;3576622;40;20383;-66
2021/07/03 13:46:49;;;;;;;2.92;0.85;;;;;;;;;;3571197;40;20404;-66
2021/07/03 13:49:15;;;;;;;2.50;0.90;;;;;;;;;;3577125;40;20376;-66
2021/07/03 13:51:43;;;;;;;3.15;1.13;;;;;;;;;;3573881;40;20859;-66
2021/07/03 13:54:09;;;;;;;2.58;0.70;;;;;;;;;;3565945;40;20420;-66
2021/07/03 13:56:35;;;;;;;1.90;0.90;;;;;;;;;;3579033;40;20392;-66
2021/07/03 13:59:01;;;;;;;2.63;1.10;;;;;;;;;;3572823;40;20390;-66
2021/07/03 14:01:28;;;;;;;1.80;1.00;;;;;;;;;;3576339;40;20372;-66
2021/07/03 14:03:54;;;;;;;1.63;0.70;;;;;;;;;;3579273;40;20422;-66
2021/07/03 14:06:20;;;;;;;4.15;0.98;;;;;;;;;;3575027;40;20396;-66
2021/07/03 14:08:47;;;;;;;3.00;0.80;;;;;;;;;;3576957;40;20481;-66
2021/07/03 14:11:14;;;;;;;6.10;0.93;;;;;;;;;;3577118;40;20386;-66
2021/07/03 14:13:40;;;;;;;1.25;0.65;;;;;;;;;;3579058;40;20479;-66
2021/07/03 14:16:08;;;;;;;2.00;0.70;;;30.20;77.70;;;;;;3581988;40;20446;-66
2021/07/03 14:18:34;;;;;;;2.03;0.82;;;30.30;76.40;;;;;;3567560;40;20439;-66